sensor_id;sensor_type;location;lat;lon;timestamp;P1;durP1;ratioP1;P2;durP2;ratioP2
74810;SDS011;63340;48.404;-4.506;2023-02-10T00:00:02;29.50;;;27.00;;
74810;SDS011;63340;48.404;-4.506;2023-02-10T00:02:28;27.00;;;26.00;;
74810;SDS011;63340;48.404;-4.506;2023-02-10T00:04:54;21.75;;;20.75;;
74810;SDS011;63340;48.404;-4.506;2023-02-10T00:07:19;18.75;;;18.50;;
74810;SDS011;63340;48.404;-4.506;2023-02-10T00:09:45;19.25;;;17.50;;
74810;SDS011;63340;48.404;-4.506;2023-02-10T00:12:11;16.50;;;16.50;;
74810;SDS011;63340;48.404;-4.506;2023-02-10T00:14:37;15.00;;;13.75;;
74810;SDS011;63340;48.404;-4.506;2023-02-10T00:17:03;17.25;;;16.50;;
74810;SDS011;63340;48.404;-4.506;2023-02-10T00:19:29;16.00;;;15.00;;
74810;SDS011;63340;48.404;-4.506;2023-02-10T00:21:58;14.50;;;14.50;;
74810;SDS011;63340;48.404;-4.506;2023-02-10T00:24:24;20.25;;;17.75;;
74810;SDS011;63340;48.404;-4.506;2023-02-10T00:26:50;15.75;;;15.75;;
74810;SDS011;63340;48.404;-4.506;2023-02-10T00:29:17;19.25;;;17.00;;
74810;SDS011;63340;48.404;-4.506;2023-02-10T00:31:42;20.00;;;19.25;;
74810;SDS011;63340;48.404;-4.506;2023-02-10T00:34:12;24.75;;;23.25;;
74810;SDS011;63340;48.404;-4.506;2023-02-10T00:36:40;22.25;;;20.75;;
74810;SDS011;63340;48.404;-4.506;2023-02-10T00:39:06;23.75;;;23.75;;
74810;SDS011;63340;48.404;-4.506;2023-02-10T00:41:31;24.25;;;22.25;;
74810;SDS011;63340;48.404;-4.506;2023-02-10T00:43:57;23.25;;;22.75;;
74810;SDS011;63340;48.404;-4.506;2023-02-10T00:46:23;20.75;;;20.75;;
74810;SDS011;63340;48.404;-4.506;2023-02-10T00:48:48;23.50;;;22.50;;
74810;SDS011;63340;48.404;-4.506;2023-02-10T00:51:14;21.25;;;20.75;;
74810;SDS011;63340;48.404;-4.506;2023-02-10T00:53:41;14.25;;;14.25;;
74810;SDS011;63340;48.404;-4.506;2023-02-10T00:56:07;19.00;;;18.25;;
74810;SDS011;63340;48.404;-4.506;2023-02-10T00:58:33;20.25;;;19.00;;
74810;SDS011;63340;48.404;-4.506;2023-02-10T01:00:58;34.00;;;31.25;;
74810;SDS011;63340;48.404;-4.506;2023-02-10T01:03:24;38.75;;;35.00;;
74810;SDS011;63340;48.404;-4.506;2023-02-10T01:05:49;28.00;;;27.50;;
74810;SDS011;63340;48.404;-4.506;2023-02-10T01:08:16;37.00;;;34.00;;
74810;SDS011;63340;48.404;-4.506;2023-02-10T01:10:42;26.00;;;26.00;;
74810;SDS011;63340;48.404;-4.506;2023-02-10T01:13:08;32.50;;;31.50;;
74810;SDS011;63340;48.404;-4.506;2023-02-10T01:15:34;35.25;;;32.75;;
74810;SDS011;63340;48.404;-4.506;2023-02-10T01:18:00;36.25;;;33.50;;
74810;SDS011;63340;48.404;-4.506;2023-02-10T01:20:25;26.25;;;23.50;;
74810;SDS011;63340;48.404;-4.506;2023-02-10T01:22:51;29.75;;;28.50;;
74810;SDS011;63340;48.404;-4.506;2023-02-10T01:25:16;24.00;;;24.00;;
74810;SDS011;63340;48.404;-4.506;2023-02-10T01:27:42;30.50;;;28.75;;
74810;SDS011;63340;48.404;-4.506;2023-02-10T01:30:07;36.75;;;34.00;;
74810;SDS011;63340;48.404;-4.506;2023-02-10T01:32:33;33.25;;;30.00;;
74810;SDS011;63340;48.404;-4.506;2023-02-10T01:34:59;35.25;;;32.00;;
74810;SDS011;63340;48.404;-4.506;2023-02-10T01:37:24;36.75;;;32.25;;
74810;SDS011;63340;48.404;-4.506;2023-02-10T01:39:50;37.25;;;34.25;;
74810;SDS011;63340;48.404;-4.506;2023-02-10T01:42:15;32.75;;;30.75;;
74810;SDS011;63340;48.404;-4.506;2023-02-10T01:47:07;35.00;;;32.25;;
74810;SDS011;63340;48.404;-4.506;2023-02-10T01:49:34;35.75;;;31.25;;
74810;SDS011;63340;48.404;-4.506;2023-02-10T01:52:06;33.00;;;32.25;;
74810;SDS011;63340;48.404;-4.506;2023-02-10T01:54:38;32.00;;;30.75;;
74810;SDS011;63340;48.404;-4.506;2023-02-10T01:57:10;35.75;;;32.75;;
74810;SDS011;63340;48.404;-4.506;2023-02-10T01:59:37;31.25;;;29.00;;
74810;SDS011;63340;48.404;-4.506;2023-02-10T02:02:04;30.25;;;29.25;;
74810;SDS011;63340;48.404;-4.506;2023-02-10T02:07:32;33.75;;;31.25;;
74810;SDS011;63340;48.404;-4.506;2023-02-10T02:10:00;26.50;;;25.75;;
74810;SDS011;63340;48.404;-4.506;2023-02-10T02:33:19;27.75;;;27.50;;
74810;SDS011;63340;48.404;-4.506;2023-02-10T02:35:52;39.25;;;36.00;;
74810;SDS011;63340;48.404;-4.506;2023-02-10T02:38:25;38.00;;;34.25;;
74810;SDS011;63340;48.404;-4.506;2023-02-10T02:40:50;41.50;;;36.00;;
74810;SDS011;63340;48.404;-4.506;2023-02-10T02:43:15;41.00;;;37.75;;
74810;SDS011;63340;48.404;-4.506;2023-02-10T02:45:53;38.00;;;34.00;;
74810;SDS011;63340;48.404;-4.506;2023-02-10T02:54:25;36.50;;;32.75;;
74810;SDS011;63340;48.404;-4.506;2023-02-10T02:57:03;34.50;;;32.75;;
74810;SDS011;63340;48.404;-4.506;2023-02-10T02:59:36;41.75;;;36.75;;
74810;SDS011;63340;48.404;-4.506;2023-02-10T03:02:11;42.50;;;35.00;;
74810;SDS011;63340;48.404;-4.506;2023-02-10T03:04:39;37.50;;;32.50;;
74810;SDS011;63340;48.404;-4.506;2023-02-10T03:07:05;35.25;;;33.25;;
74810;SDS011;63340;48.404;-4.506;2023-02-10T03:09:31;41.50;;;37.75;;
74810;SDS011;63340;48.404;-4.506;2023-02-10T03:11:57;40.25;;;36.00;;
74810;SDS011;63340;48.404;-4.506;2023-02-10T03:14:23;44.25;;;38.00;;
74810;SDS011;63340;48.404;-4.506;2023-02-10T03:16:48;47.25;;;40.25;;
74810;SDS011;63340;48.404;-4.506;2023-02-10T03:19:14;48.50;;;42.00;;
74810;SDS011;63340;48.404;-4.506;2023-02-10T03:21:39;52.25;;;43.25;;
74810;SDS011;63340;48.404;-4.506;2023-02-10T03:24:05;45.50;;;40.25;;
74810;SDS011;63340;48.404;-4.506;2023-02-10T03:26:30;48.50;;;40.75;;
74810;SDS011;63340;48.404;-4.506;2023-02-10T03:28:56;49.00;;;39.50;;
74810;SDS011;63340;48.404;-4.506;2023-02-10T03:31:22;40.50;;;37.00;;
74810;SDS011;63340;48.404;-4.506;2023-02-10T03:33:48;36.00;;;32.75;;
74810;SDS011;63340;48.404;-4.506;2023-02-10T03:36:14;34.75;;;33.75;;
74810;SDS011;63340;48.404;-4.506;2023-02-10T03:38:39;34.00;;;32.25;;
74810;SDS011;63340;48.404;-4.506;2023-02-10T03:41:05;31.25;;;28.50;;
74810;SDS011;63340;48.404;-4.506;2023-02-10T03:43:30;23.00;;;21.00;;
74810;SDS011;63340;48.404;-4.506;2023-02-10T03:45:59;35.25;;;32.25;;
74810;SDS011;63340;48.404;-4.506;2023-02-10T03:48:28;27.50;;;27.50;;
74810;SDS011;63340;48.404;-4.506;2023-02-10T03:51:01;29.25;;;29.00;;
74810;SDS011;63340;48.404;-4.506;2023-02-10T03:53:28;29.25;;;29.25;;
74810;SDS011;63340;48.404;-4.506;2023-02-10T03:55:54;27.25;;;27.25;;
74810;SDS011;63340;48.404;-4.506;2023-02-10T03:58:20;27.00;;;26.75;;
74810;SDS011;63340;48.404;-4.506;2023-02-10T04:00:46;30.50;;;29.00;;
74810;SDS011;63340;48.404;-4.506;2023-02-10T04:03:12;30.50;;;28.25;;
74810;SDS011;63340;48.404;-4.506;2023-02-10T04:05:38;28.25;;;28.25;;
74810;SDS011;63340;48.404;-4.506;2023-02-10T04:08:03;27.50;;;27.50;;
74810;SDS011;63340;48.404;-4.506;2023-02-10T04:10:29;28.50;;;25.75;;
74810;SDS011;63340;48.404;-4.506;2023-02-10T04:12:55;32.75;;;31.25;;
74810;SDS011;63340;48.404;-4.506;2023-02-10T04:15:20;35.00;;;32.00;;
74810;SDS011;63340;48.404;-4.506;2023-02-10T04:17:46;31.50;;;28.00;;
74810;SDS011;63340;48.404;-4.506;2023-02-10T04:20:11;28.25;;;27.75;;
74810;SDS011;63340;48.404;-4.506;2023-02-10T04:22:37;28.50;;;28.50;;
74810;SDS011;63340;48.404;-4.506;2023-02-10T04:25:03;31.50;;;28.75;;
74810;SDS011;63340;48.404;-4.506;2023-02-10T04:27:28;32.75;;;29.25;;
74810;SDS011;63340;48.404;-4.506;2023-02-10T04:29:54;27.00;;;25.75;;
74810;SDS011;63340;48.404;-4.506;2023-02-10T04:32:20;29.75;;;28.50;;
74810;SDS011;63340;48.404;-4.506;2023-02-10T04:34:46;25.50;;;24.25;;
74810;SDS011;63340;48.404;-4.506;2023-02-10T04:37:12;29.00;;;28.50;;
74810;SDS011;63340;48.404;-4.506;2023-02-10T04:39:38;26.75;;;26.00;;
74810;SDS011;63340;48.404;-4.506;2023-02-10T04:42:03;25.00;;;24.75;;
74810;SDS011;63340;48.404;-4.506;2023-02-10T04:44:29;23.00;;;21.25;;
74810;SDS011;63340;48.404;-4.506;2023-02-10T04:46:54;24.50;;;24.50;;
74810;SDS011;63340;48.404;-4.506;2023-02-10T04:49:20;25.50;;;23.50;;
74810;SDS011;63340;48.404;-4.506;2023-02-10T04:51:45;22.00;;;22.00;;
74810;SDS011;63340;48.404;-4.506;2023-02-10T04:54:10;28.00;;;26.50;;
74810;SDS011;63340;48.404;-4.506;2023-02-10T04:56:36;25.75;;;25.75;;
74810;SDS011;63340;48.404;-4.506;2023-02-10T04:59:02;27.75;;;27.25;;
74810;SDS011;63340;48.404;-4.506;2023-02-10T05:01:27;28.75;;;28.00;;
74810;SDS011;63340;48.404;-4.506;2023-02-10T05:03:52;19.50;;;19.50;;
74810;SDS011;63340;48.404;-4.506;2023-02-10T05:06:18;20.50;;;20.00;;
74810;SDS011;63340;48.404;-4.506;2023-02-10T05:08:43;28.00;;;28.00;;
74810;SDS011;63340;48.404;-4.506;2023-02-10T05:11:10;28.75;;;27.25;;
74810;SDS011;63340;48.404;-4.506;2023-02-10T05:13:37;26.75;;;25.25;;
74810;SDS011;63340;48.404;-4.506;2023-02-10T05:16:04;27.50;;;26.75;;
74810;SDS011;63340;48.404;-4.506;2023-02-10T05:18:30;30.75;;;30.00;;
74810;SDS011;63340;48.404;-4.506;2023-02-10T05:20:57;28.50;;;26.75;;
74810;SDS011;63340;48.404;-4.506;2023-02-10T05:23:23;25.25;;;25.25;;
74810;SDS011;63340;48.404;-4.506;2023-02-10T05:25:49;29.00;;;28.00;;
74810;SDS011;63340;48.404;-4.506;2023-02-10T05:28:14;24.00;;;24.00;;
74810;SDS011;63340;48.404;-4.506;2023-02-10T05:30:40;29.50;;;27.75;;
74810;SDS011;63340;48.404;-4.506;2023-02-10T05:33:05;27.75;;;27.75;;
74810;SDS011;63340;48.404;-4.506;2023-02-10T05:35:31;27.25;;;27.00;;
74810;SDS011;63340;48.404;-4.506;2023-02-10T05:37:56;25.50;;;24.75;;
74810;SDS011;63340;48.404;-4.506;2023-02-10T05:40:22;30.75;;;30.50;;
74810;SDS011;63340;48.404;-4.506;2023-02-10T05:42:49;29.75;;;29.00;;
74810;SDS011;63340;48.404;-4.506;2023-02-10T05:45:14;26.00;;;26.00;;
74810;SDS011;63340;48.404;-4.506;2023-02-10T05:47:40;25.50;;;23.75;;
74810;SDS011;63340;48.404;-4.506;2023-02-10T05:50:06;27.75;;;25.00;;
74810;SDS011;63340;48.404;-4.506;2023-02-10T05:52:32;9.75;;;8.00;;
74810;SDS011;63340;48.404;-4.506;2023-02-10T05:54:57;27.25;;;23.00;;
74810;SDS011;63340;48.404;-4.506;2023-02-10T05:57:22;31.00;;;30.00;;
74810;SDS011;63340;48.404;-4.506;2023-02-10T05:59:48;22.50;;;22.50;;
74810;SDS011;63340;48.404;-4.506;2023-02-10T06:02:13;25.00;;;25.00;;
74810;SDS011;63340;48.404;-4.506;2023-02-10T06:04:39;27.00;;;25.75;;
74810;SDS011;63340;48.404;-4.506;2023-02-10T06:07:04;30.50;;;29.00;;
74810;SDS011;63340;48.404;-4.506;2023-02-10T06:09:30;27.25;;;26.25;;
74810;SDS011;63340;48.404;-4.506;2023-02-10T06:11:55;30.50;;;28.50;;
74810;SDS011;63340;48.404;-4.506;2023-02-10T06:14:30;30.75;;;30.75;;
74810;SDS011;63340;48.404;-4.506;2023-02-10T06:16:56;29.75;;;27.75;;
74810;SDS011;63340;48.404;-4.506;2023-02-10T06:19:21;35.25;;;31.25;;
74810;SDS011;63340;48.404;-4.506;2023-02-10T06:21:47;37.50;;;32.00;;
74810;SDS011;63340;48.404;-4.506;2023-02-10T06:24:12;25.50;;;25.25;;
74810;SDS011;63340;48.404;-4.506;2023-02-10T06:26:38;33.75;;;30.50;;
74810;SDS011;63340;48.404;-4.506;2023-02-10T06:29:03;28.00;;;27.25;;
74810;SDS011;63340;48.404;-4.506;2023-02-10T06:31:29;30.50;;;30.50;;
74810;SDS011;63340;48.404;-4.506;2023-02-10T06:33:54;32.25;;;31.75;;
74810;SDS011;63340;48.404;-4.506;2023-02-10T06:36:20;37.50;;;34.50;;
74810;SDS011;63340;48.404;-4.506;2023-02-10T06:38:45;31.75;;;31.75;;
74810;SDS011;63340;48.404;-4.506;2023-02-10T06:41:12;31.50;;;31.00;;
74810;SDS011;63340;48.404;-4.506;2023-02-10T06:43:38;36.25;;;32.75;;
74810;SDS011;63340;48.404;-4.506;2023-02-10T06:46:04;37.75;;;34.25;;
74810;SDS011;63340;48.404;-4.506;2023-02-10T06:48:29;42.75;;;37.25;;
74810;SDS011;63340;48.404;-4.506;2023-02-10T06:50:55;28.25;;;28.25;;
74810;SDS011;63340;48.404;-4.506;2023-02-10T06:53:20;37.00;;;34.25;;
74810;SDS011;63340;48.404;-4.506;2023-02-10T06:55:46;36.00;;;32.50;;
74810;SDS011;63340;48.404;-4.506;2023-02-10T06:58:12;34.25;;;32.00;;
74810;SDS011;63340;48.404;-4.506;2023-02-10T07:00:37;35.25;;;32.00;;
74810;SDS011;63340;48.404;-4.506;2023-02-10T07:03:03;34.50;;;32.25;;
74810;SDS011;63340;48.404;-4.506;2023-02-10T07:05:28;33.25;;;31.75;;
74810;SDS011;63340;48.404;-4.506;2023-02-10T07:07:56;35.00;;;33.25;;
74810;SDS011;63340;48.404;-4.506;2023-02-10T07:10:24;38.00;;;34.50;;
74810;SDS011;63340;48.404;-4.506;2023-02-10T07:12:49;34.25;;;32.50;;
74810;SDS011;63340;48.404;-4.506;2023-02-10T07:15:16;25.25;;;25.25;;
74810;SDS011;63340;48.404;-4.506;2023-02-10T07:17:43;29.50;;;28.50;;
74810;SDS011;63340;48.404;-4.506;2023-02-10T07:20:10;30.50;;;29.25;;
74810;SDS011;63340;48.404;-4.506;2023-02-10T07:22:36;29.75;;;29.75;;
74810;SDS011;63340;48.404;-4.506;2023-02-10T07:28:02;26.50;;;26.50;;
74810;SDS011;63340;48.404;-4.506;2023-02-10T07:30:28;30.50;;;27.75;;
74810;SDS011;63340;48.404;-4.506;2023-02-10T07:32:56;27.25;;;25.25;;
74810;SDS011;63340;48.404;-4.506;2023-02-10T07:35:22;27.75;;;26.00;;
74810;SDS011;63340;48.404;-4.506;2023-02-10T07:37:47;22.75;;;21.50;;
74810;SDS011;63340;48.404;-4.506;2023-02-10T07:40:13;25.25;;;25.25;;
74810;SDS011;63340;48.404;-4.506;2023-02-10T07:42:38;26.25;;;23.00;;
74810;SDS011;63340;48.404;-4.506;2023-02-10T07:45:03;25.25;;;25.25;;
74810;SDS011;63340;48.404;-4.506;2023-02-10T07:47:29;26.50;;;25.50;;
74810;SDS011;63340;48.404;-4.506;2023-02-10T07:49:54;28.00;;;27.25;;
74810;SDS011;63340;48.404;-4.506;2023-02-10T07:52:21;24.75;;;24.00;;
74810;SDS011;63340;48.404;-4.506;2023-02-10T07:54:47;28.75;;;27.50;;
74810;SDS011;63340;48.404;-4.506;2023-02-10T07:57:14;25.75;;;22.00;;
74810;SDS011;63340;48.404;-4.506;2023-02-10T07:59:39;23.25;;;23.00;;
74810;SDS011;63340;48.404;-4.506;2023-02-10T08:02:05;24.00;;;23.50;;
74810;SDS011;63340;48.404;-4.506;2023-02-10T08:04:33;24.00;;;24.00;;
74810;SDS011;63340;48.404;-4.506;2023-02-10T08:06:59;20.75;;;20.00;;
74810;SDS011;63340;48.404;-4.506;2023-02-10T08:09:24;23.75;;;23.25;;
74810;SDS011;63340;48.404;-4.506;2023-02-10T08:11:50;25.25;;;24.50;;
74810;SDS011;63340;48.404;-4.506;2023-02-10T08:14:15;23.25;;;21.75;;
74810;SDS011;63340;48.404;-4.506;2023-02-10T08:16:41;23.75;;;23.25;;
74810;SDS011;63340;48.404;-4.506;2023-02-10T08:19:06;29.00;;;26.00;;
74810;SDS011;63340;48.404;-4.506;2023-02-10T08:21:32;24.50;;;23.50;;
74810;SDS011;63340;48.404;-4.506;2023-02-10T08:23:57;24.25;;;24.00;;
74810;SDS011;63340;48.404;-4.506;2023-02-10T08:26:23;27.00;;;27.00;;
74810;SDS011;63340;48.404;-4.506;2023-02-10T08:28:49;24.25;;;23.50;;
74810;SDS011;63340;48.404;-4.506;2023-02-10T08:31:16;31.50;;;26.50;;
74810;SDS011;63340;48.404;-4.506;2023-02-10T08:33:42;26.25;;;24.75;;
74810;SDS011;63340;48.404;-4.506;2023-02-10T08:36:09;25.50;;;23.25;;
74810;SDS011;63340;48.404;-4.506;2023-02-10T08:38:35;25.00;;;23.50;;
74810;SDS011;63340;48.404;-4.506;2023-02-10T08:41:01;21.50;;;21.50;;
74810;SDS011;63340;48.404;-4.506;2023-02-10T08:43:27;20.50;;;20.50;;
74810;SDS011;63340;48.404;-4.506;2023-02-10T08:45:57;18.00;;;18.00;;
74810;SDS011;63340;48.404;-4.506;2023-02-10T08:48:24;19.25;;;18.25;;
74810;SDS011;63340;48.404;-4.506;2023-02-10T08:50:50;22.50;;;20.00;;
74810;SDS011;63340;48.404;-4.506;2023-02-10T08:53:15;19.50;;;19.50;;
74810;SDS011;63340;48.404;-4.506;2023-02-10T08:55:42;19.50;;;19.50;;
74810;SDS011;63340;48.404;-4.506;2023-02-10T08:58:07;17.50;;;17.00;;
74810;SDS011;63340;48.404;-4.506;2023-02-10T09:00:34;19.75;;;19.75;;
74810;SDS011;63340;48.404;-4.506;2023-02-10T09:03:00;15.25;;;15.25;;
74810;SDS011;63340;48.404;-4.506;2023-02-10T09:05:25;22.75;;;21.75;;
74810;SDS011;63340;48.404;-4.506;2023-02-10T09:07:51;18.50;;;17.75;;
74810;SDS011;63340;48.404;-4.506;2023-02-10T09:10:16;18.50;;;17.25;;
74810;SDS011;63340;48.404;-4.506;2023-02-10T09:12:44;18.50;;;18.00;;
74810;SDS011;63340;48.404;-4.506;2023-02-10T09:15:10;18.25;;;18.00;;
74810;SDS011;63340;48.404;-4.506;2023-02-10T09:17:36;19.25;;;16.25;;
74810;SDS011;63340;48.404;-4.506;2023-02-10T09:20:01;18.25;;;17.00;;
74810;SDS011;63340;48.404;-4.506;2023-02-10T09:22:28;16.00;;;15.00;;
74810;SDS011;63340;48.404;-4.506;2023-02-10T09:24:53;15.00;;;14.50;;
74810;SDS011;63340;48.404;-4.506;2023-02-10T09:27:19;14.00;;;14.00;;
74810;SDS011;63340;48.404;-4.506;2023-02-10T09:29:46;13.50;;;12.25;;
74810;SDS011;63340;48.404;-4.506;2023-02-10T09:32:12;13.75;;;13.00;;
74810;SDS011;63340;48.404;-4.506;2023-02-10T09:34:37;14.25;;;13.00;;
74810;SDS011;63340;48.404;-4.506;2023-02-10T09:37:05;19.00;;;17.00;;
74810;SDS011;63340;48.404;-4.506;2023-02-10T09:39:31;18.25;;;17.25;;
74810;SDS011;63340;48.404;-4.506;2023-02-10T09:42:01;21.50;;;19.25;;
74810;SDS011;63340;48.404;-4.506;2023-02-10T09:44:44;21.25;;;19.75;;
74810;SDS011;63340;48.404;-4.506;2023-02-10T09:53:21;18.25;;;17.25;;
74810;SDS011;63340;48.404;-4.506;2023-02-10T09:55:50;20.50;;;18.75;;
74810;SDS011;63340;48.404;-4.506;2023-02-10T09:59:23;19.00;;;18.00;;
74810;SDS011;63340;48.404;-4.506;2023-02-10T10:01:35;19.50;;;18.00;;
74810;SDS011;63340;48.404;-4.506;2023-02-10T10:06:36;21.75;;;20.75;;
74810;SDS011;63340;48.404;-4.506;2023-02-10T10:09:13;19.75;;;19.75;;
74810;SDS011;63340;48.404;-4.506;2023-02-10T10:11:49;23.25;;;22.00;;
74810;SDS011;63340;48.404;-4.506;2023-02-10T10:27:17;15.25;;;15.00;;
74810;SDS011;63340;48.404;-4.506;2023-02-10T10:29:55;18.50;;;16.25;;
74810;SDS011;63340;48.404;-4.506;2023-02-10T10:32:37;15.00;;;14.25;;
74810;SDS011;63340;48.404;-4.506;2023-02-10T10:35:15;15.25;;;15.25;;
74810;SDS011;63340;48.404;-4.506;2023-02-10T10:37:41;15.00;;;13.00;;
74810;SDS011;63340;48.404;-4.506;2023-02-10T10:40:08;14.50;;;13.50;;
74810;SDS011;63340;48.404;-4.506;2023-02-10T10:42:45;13.00;;;13.00;;
74810;SDS011;63340;48.404;-4.506;2023-02-10T10:45:18;14.00;;;13.00;;
74810;SDS011;63340;48.404;-4.506;2023-02-10T10:47:48;10.50;;;10.25;;
74810;SDS011;63340;48.404;-4.506;2023-02-10T10:50:22;12.00;;;10.50;;
74810;SDS011;63340;48.404;-4.506;2023-02-10T10:52:49;13.00;;;11.50;;
74810;SDS011;63340;48.404;-4.506;2023-02-10T11:00:50;9.00;;;9.00;;
74810;SDS011;63340;48.404;-4.506;2023-02-10T11:03:17;10.25;;;10.00;;
74810;SDS011;63340;48.404;-4.506;2023-02-10T11:05:42;9.25;;;9.25;;
74810;SDS011;63340;48.404;-4.506;2023-02-10T11:08:54;11.00;;;10.50;;
74810;SDS011;63340;48.404;-4.506;2023-02-10T11:11:38;11.00;;;11.00;;
74810;SDS011;63340;48.404;-4.506;2023-02-10T11:14:13;10.50;;;10.50;;
74810;SDS011;63340;48.404;-4.506;2023-02-10T11:16:46;9.75;;;9.25;;
74810;SDS011;63340;48.404;-4.506;2023-02-10T11:19:18;13.00;;;12.00;;
74810;SDS011;63340;48.404;-4.506;2023-02-10T11:21:48;11.75;;;11.25;;
74810;SDS011;63340;48.404;-4.506;2023-02-10T11:24:20;11.50;;;11.00;;
74810;SDS011;63340;48.404;-4.506;2023-02-10T11:26:54;9.50;;;8.75;;
74810;SDS011;63340;48.404;-4.506;2023-02-10T11:29:28;10.00;;;9.25;;
74810;SDS011;63340;48.404;-4.506;2023-02-10T11:31:55;11.50;;;11.50;;
74810;SDS011;63340;48.404;-4.506;2023-02-10T11:34:28;8.00;;;8.00;;
74810;SDS011;63340;48.404;-4.506;2023-02-10T11:36:57;8.75;;;8.50;;
74810;SDS011;63340;48.404;-4.506;2023-02-10T11:39:29;11.00;;;9.50;;
74810;SDS011;63340;48.404;-4.506;2023-02-10T11:42:06;8.50;;;8.00;;
74810;SDS011;63340;48.404;-4.506;2023-02-10T11:44:36;6.50;;;6.50;;
74810;SDS011;63340;48.404;-4.506;2023-02-10T11:47:10;8.75;;;8.75;;
74810;SDS011;63340;48.404;-4.506;2023-02-10T11:49:42;9.00;;;7.75;;
74810;SDS011;63340;48.404;-4.506;2023-02-10T11:52:12;7.25;;;7.25;;
74810;SDS011;63340;48.404;-4.506;2023-02-10T11:54:39;6.50;;;5.00;;
74810;SDS011;63340;48.404;-4.506;2023-02-10T12:00:28;6.00;;;5.75;;
74810;SDS011;63340;48.404;-4.506;2023-02-10T12:11:43;9.50;;;8.00;;
74810;SDS011;63340;48.404;-4.506;2023-02-10T12:14:25;6.50;;;6.50;;
74810;SDS011;63340;48.404;-4.506;2023-02-10T12:44:56;2.75;;;1.00;;
74810;SDS011;63340;48.404;-4.506;2023-02-10T12:52:32;1.25;;;1.25;;
74810;SDS011;63340;48.404;-4.506;2023-02-10T13:00:21;1.00;;;1.00;;
74810;SDS011;63340;48.404;-4.506;2023-02-10T13:05:47;0.00;;;0.00;;
74810;SDS011;63340;48.404;-4.506;2023-02-10T13:08:19;0.00;;;0.00;;
74810;SDS011;63340;48.404;-4.506;2023-02-10T13:10:55;1.25;;;0.00;;
74810;SDS011;63340;48.404;-4.506;2023-02-10T13:13:27;0.00;;;0.00;;
74810;SDS011;63340;48.404;-4.506;2023-02-10T13:18:54;0.00;;;0.00;;
74810;SDS011;63340;48.404;-4.506;2023-02-10T13:34:43;1.00;;;0.00;;
74810;SDS011;63340;48.404;-4.506;2023-02-10T13:45:25;2.00;;;2.00;;
74810;SDS011;63340;48.404;-4.506;2023-02-10T13:50:28;3.75;;;3.25;;
74810;SDS011;63340;48.404;-4.506;2023-02-10T13:53:02;1.50;;;1.50;;
74810;SDS011;63340;48.404;-4.506;2023-02-10T14:00:43;1.00;;;1.00;;
74810;SDS011;63340;48.404;-4.506;2023-02-10T14:05:36;1.00;;;1.00;;
74810;SDS011;63340;48.404;-4.506;2023-02-10T14:08:14;1.00;;;0.25;;
74810;SDS011;63340;48.404;-4.506;2023-02-10T14:10:55;0.00;;;0.00;;
74810;SDS011;63340;48.404;-4.506;2023-02-10T14:13:24;0.00;;;0.00;;
74810;SDS011;63340;48.404;-4.506;2023-02-10T14:16:02;0.75;;;0.75;;
74810;SDS011;63340;48.404;-4.506;2023-02-10T14:18:36;1.00;;;0.50;;
74810;SDS011;63340;48.404;-4.506;2023-02-10T14:21:06;1.00;;;1.00;;
74810;SDS011;63340;48.404;-4.506;2023-02-10T14:23:50;1.50;;;0.75;;
74810;SDS011;63340;48.404;-4.506;2023-02-10T14:26:34;1.50;;;1.00;;
74810;SDS011;63340;48.404;-4.506;2023-02-10T14:29:08;2.33;;;1.00;;
74810;SDS011;63340;48.404;-4.506;2023-02-10T14:31:51;0.00;;;0.00;;
74810;SDS011;63340;48.404;-4.506;2023-02-10T14:34:30;0.00;;;0.00;;
74810;SDS011;63340;48.404;-4.506;2023-02-10T14:37:24;0.00;;;0.00;;
74810;SDS011;63340;48.404;-4.506;2023-02-10T14:40:02;0.50;;;0.00;;
74810;SDS011;63340;48.404;-4.506;2023-02-10T14:43:12;0.75;;;0.50;;
74810;SDS011;63340;48.404;-4.506;2023-02-10T14:45:38;1.50;;;1.00;;
74810;SDS011;63340;48.404;-4.506;2023-02-10T14:48:06;1.75;;;1.00;;
74810;SDS011;63340;48.404;-4.506;2023-02-10T14:50:55;3.00;;;2.00;;
74810;SDS011;63340;48.404;-4.506;2023-02-10T14:53:49;4.00;;;2.75;;
74810;SDS011;63340;48.404;-4.506;2023-02-10T14:56:22;2.00;;;2.00;;
74810;SDS011;63340;48.404;-4.506;2023-02-10T15:02:29;5.00;;;5.00;;
74810;SDS011;63340;48.404;-4.506;2023-02-10T15:04:59;3.25;;;3.25;;
74810;SDS011;63340;48.404;-4.506;2023-02-10T15:07:32;3.00;;;3.00;;
74810;SDS011;63340;48.404;-4.506;2023-02-10T15:13:06;1.00;;;1.00;;
74810;SDS011;63340;48.404;-4.506;2023-02-10T15:15:45;1.00;;;0.00;;
74810;SDS011;63340;48.404;-4.506;2023-02-10T15:21:32;2.00;;;0.50;;
74810;SDS011;63340;48.404;-4.506;2023-02-10T15:27:21;1.50;;;1.00;;
74810;SDS011;63340;48.404;-4.506;2023-02-10T15:30:17;1.00;;;1.00;;
74810;SDS011;63340;48.404;-4.506;2023-02-10T15:32:56;1.00;;;0.50;;
74810;SDS011;63340;48.404;-4.506;2023-02-10T15:36:10;1.75;;;1.00;;
74810;SDS011;63340;48.404;-4.506;2023-02-10T15:38:49;2.00;;;1.25;;
74810;SDS011;63340;48.404;-4.506;2023-02-10T15:41:32;2.00;;;1.00;;
74810;SDS011;63340;48.404;-4.506;2023-02-10T15:43:58;1.00;;;1.00;;
74810;SDS011;63340;48.404;-4.506;2023-02-10T15:46:27;1.00;;;1.00;;
74810;SDS011;63340;48.404;-4.506;2023-02-10T15:49:09;1.00;;;1.00;;
74810;SDS011;63340;48.404;-4.506;2023-02-10T15:51:38;2.75;;;2.00;;
74810;SDS011;63340;48.404;-4.506;2023-02-10T15:54:12;2.00;;;2.00;;
74810;SDS011;63340;48.404;-4.506;2023-02-10T15:56:40;1.50;;;1.50;;
74810;SDS011;63340;48.404;-4.506;2023-02-10T15:59:12;2.00;;;2.00;;
74810;SDS011;63340;48.404;-4.506;2023-02-10T16:01:40;2.00;;;0.75;;
74810;SDS011;63340;48.404;-4.506;2023-02-10T16:04:06;3.00;;;2.00;;
74810;SDS011;63340;48.404;-4.506;2023-02-10T16:06:32;1.00;;;1.00;;
74810;SDS011;63340;48.404;-4.506;2023-02-10T16:08:58;0.25;;;0.25;;
74810;SDS011;63340;48.404;-4.506;2023-02-10T16:11:24;0.25;;;0.25;;
74810;SDS011;63340;48.404;-4.506;2023-02-10T16:13:55;3.00;;;1.75;;
74810;SDS011;63340;48.404;-4.506;2023-02-10T16:16:21;0.00;;;0.00;;
74810;SDS011;63340;48.404;-4.506;2023-02-10T16:18:46;1.25;;;1.00;;
74810;SDS011;63340;48.404;-4.506;2023-02-10T16:21:13;1.00;;;1.00;;
74810;SDS011;63340;48.404;-4.506;2023-02-10T16:23:39;1.00;;;1.00;;
74810;SDS011;63340;48.404;-4.506;2023-02-10T16:26:05;0.00;;;0.00;;
74810;SDS011;63340;48.404;-4.506;2023-02-10T16:28:30;1.00;;;0.50;;
74810;SDS011;63340;48.404;-4.506;2023-02-10T16:30:56;0.50;;;0.50;;
74810;SDS011;63340;48.404;-4.506;2023-02-10T16:33:21;0.25;;;0.25;;
74810;SDS011;63340;48.404;-4.506;2023-02-10T16:35:47;1.00;;;1.00;;
74810;SDS011;63340;48.404;-4.506;2023-02-10T16:38:12;0.25;;;0.25;;
74810;SDS011;63340;48.404;-4.506;2023-02-10T16:40:38;0.00;;;0.00;;
74810;SDS011;63340;48.404;-4.506;2023-02-10T16:43:04;0.00;;;0.00;;
74810;SDS011;63340;48.404;-4.506;2023-02-10T16:45:31;0.25;;;0.25;;
74810;SDS011;63340;48.404;-4.506;2023-02-10T16:47:58;1.00;;;1.00;;
74810;SDS011;63340;48.404;-4.506;2023-02-10T16:53:02;0.50;;;0.50;;
74810;SDS011;63340;48.404;-4.506;2023-02-10T16:55:29;1.00;;;1.00;;
74810;SDS011;63340;48.404;-4.506;2023-02-10T16:57:54;1.75;;;1.75;;
74810;SDS011;63340;48.404;-4.506;2023-02-10T17:00:20;0.00;;;0.00;;
74810;SDS011;63340;48.404;-4.506;2023-02-10T17:02:46;1.25;;;1.00;;
74810;SDS011;63340;48.404;-4.506;2023-02-10T17:05:12;1.00;;;1.00;;
74810;SDS011;63340;48.404;-4.506;2023-02-10T17:07:38;1.00;;;1.00;;
74810;SDS011;63340;48.404;-4.506;2023-02-10T17:10:04;2.00;;;2.00;;